sensor_id;sensor_type;location;lat;lon;timestamp;pressure;altitude;pressure_sealevel;temperature;humidity
4576;BME280;2300;51.874;8.430;2023-04-22T00:00:19;100073.19;;;11.27;89.18
4576;BME280;2300;51.874;8.430;2023-04-22T00:02:48;100091.00;;;11.42;89.11
4576;BME280;2300;51.874;8.430;2023-04-22T00:05:16;100085.50;;;11.42;89.11
4576;BME280;2300;51.874;8.430;2023-04-22T00:07:43;100076.03;;;11.33;89.15
4576;BME280;2300;51.874;8.430;2023-04-22T00:10:10;100093.09;;;11.35;89.09
4576;BME280;2300;51.874;8.430;2023-04-22T00:12:36;100085.34;;;11.32;88.97
4576;BME280;2300;51.874;8.430;2023-04-22T00:15:03;100094.50;;;11.37;89.48
4576;BME280;2300;51.874;8.430;2023-04-22T00:17:30;100095.84;;;11.35;89.83
4576;BME280;2300;51.874;8.430;2023-04-22T00:19:57;100083.13;;;11.28;90.27
4576;BME280;2300;51.874;8.430;2023-04-22T00:22:27;100093.59;;;11.32;91.12
4576;BME280;2300;51.874;8.430;2023-04-22T00:24:53;100077.63;;;11.28;90.39
4576;BME280;2300;51.874;8.430;2023-04-22T00:27:19;100065.63;;;11.18;91.42
4576;BME280;2300;51.874;8.430;2023-04-22T00:29:46;100084.03;;;11.17;91.13
4576;BME280;2300;51.874;8.430;2023-04-22T00:32:12;100079.63;;;11.16;90.94
4576;BME280;2300;51.874;8.430;2023-04-22T00:34:39;100080.53;;;11.05;90.94
4576;BME280;2300;51.874;8.430;2023-04-22T00:37:05;100071.72;;;11.03;91.44
4576;BME280;2300;51.874;8.430;2023-04-22T00:39:33;100083.94;;;10.96;91.67
4576;BME280;2300;51.874;8.430;2023-04-22T00:41:59;100075.38;;;10.92;91.37
4576;BME280;2300;51.874;8.430;2023-04-22T00:44:28;100074.47;;;10.87;91.70
4576;BME280;2300;51.874;8.430;2023-04-22T00:46:55;100016.03;;;10.41;91.62
4576;BME280;2300;51.874;8.430;2023-04-22T00:49:22;100082.75;;;10.75;91.77
4576;BME280;2300;51.874;8.430;2023-04-22T00:51:50;100083.84;;;10.74;91.24
4576;BME280;2300;51.874;8.430;2023-04-22T00:54:16;100079.34;;;10.68;91.08
4576;BME280;2300;51.874;8.430;2023-04-22T00:56:44;100078.16;;;10.64;90.80
4576;BME280;2300;51.874;8.430;2023-04-22T00:59:11;100080.34;;;10.62;90.49
4576;BME280;2300;51.874;8.430;2023-04-22T01:01:38;100079.16;;;10.58;90.20
4576;BME280;2300;51.874;8.430;2023-04-22T01:04:04;100070.16;;;10.46;90.32
4576;BME280;2300;51.874;8.430;2023-04-22T01:06:34;100063.84;;;10.45;90.40
4576;BME280;2300;51.874;8.430;2023-04-22T01:09:00;100068.88;;;10.36;90.12
4576;BME280;2300;51.874;8.430;2023-04-22T01:11:27;100045.53;;;10.22;90.64
4576;BME280;2300;51.874;8.430;2023-04-22T01:13:55;100070.97;;;10.29;90.31
4576;BME280;2300;51.874;8.430;2023-04-22T01:16:21;100062.50;;;10.19;90.36
4576;BME280;2300;51.874;8.430;2023-04-22T01:18:49;100066.22;;;10.13;90.60
4576;BME280;2300;51.874;8.430;2023-04-22T01:21:17;100059.34;;;9.99;90.54
4576;BME280;2300;51.874;8.430;2023-04-22T01:23:45;100066.13;;;10.08;91.40
4576;BME280;2300;51.874;8.430;2023-04-22T01:26:12;100058.13;;;10.07;91.05
4576;BME280;2300;51.874;8.430;2023-04-22T01:28:39;100060.44;;;9.98;90.62
4576;BME280;2300;51.874;8.430;2023-04-22T01:31:05;100061.78;;;9.84;90.85
4576;BME280;2300;51.874;8.430;2023-04-22T01:33:32;100059.53;;;9.81;91.58
4576;BME280;2300;51.874;8.430;2023-04-22T01:35:59;100056.56;;;9.71;91.83
4576;BME280;2300;51.874;8.430;2023-04-22T01:38:25;100057.91;;;9.68;92.18
4576;BME280;2300;51.874;8.430;2023-04-22T01:40:54;100062.53;;;9.68;92.11
4576;BME280;2300;51.874;8.430;2023-04-22T01:43:21;100053.38;;;9.62;91.99
4576;BME280;2300;51.874;8.430;2023-04-22T01:45:47;100039.22;;;9.53;91.52
4576;BME280;2300;51.874;8.430;2023-04-22T01:48:14;100043.88;;;9.53;92.65
4576;BME280;2300;51.874;8.430;2023-04-22T01:50:40;100053.81;;;9.71;92.63
4576;BME280;2300;51.874;8.430;2023-04-22T01:53:07;100053.00;;;9.70;92.87
4576;BME280;2300;51.874;8.430;2023-04-22T01:55:34;100054.19;;;9.74;92.43
4576;BME280;2300;51.874;8.430;2023-04-22T01:58:02;100052.25;;;9.75;91.98
4576;BME280;2300;51.874;8.430;2023-04-22T02:00:30;100048.44;;;9.76;90.66
4576;BME280;2300;51.874;8.430;2023-04-22T02:02:56;100054.88;;;9.70;90.08
4576;BME280;2300;51.874;8.430;2023-04-22T02:05:23;100046.00;;;9.63;90.23
4576;BME280;2300;51.874;8.430;2023-04-22T02:07:50;100055.88;;;9.64;88.38
4576;BME280;2300;51.874;8.430;2023-04-22T02:10:17;100061.22;;;9.70;88.52
4576;BME280;2300;51.874;8.430;2023-04-22T02:12:43;100041.22;;;9.58;87.68
4576;BME280;2300;51.874;8.430;2023-04-22T02:15:11;100058.63;;;9.64;88.19
4576;BME280;2300;51.874;8.430;2023-04-22T02:17:39;100059.81;;;9.68;87.32
4576;BME280;2300;51.874;8.430;2023-04-22T02:20:07;100054.44;;;9.73;86.83
4576;BME280;2300;51.874;8.430;2023-04-22T02:22:35;100063.81;;;9.77;86.75
4576;BME280;2300;51.874;8.430;2023-04-22T02:25:03;100057.16;;;9.73;86.89
4576;BME280;2300;51.874;8.430;2023-04-22T02:27:29;100048.94;;;9.73;86.95
4576;BME280;2300;51.874;8.430;2023-04-22T02:29:56;100066.22;;;9.73;86.32
4576;BME280;2300;51.874;8.430;2023-04-22T02:32:24;100065.50;;;9.66;87.44
4576;BME280;2300;51.874;8.430;2023-04-22T02:34:51;100056.00;;;9.69;87.90
4576;BME280;2300;51.874;8.430;2023-04-22T02:37:17;100064.22;;;9.69;88.70
4576;BME280;2300;51.874;8.430;2023-04-22T02:39:44;100066.22;;;9.73;88.58
4576;BME280;2300;51.874;8.430;2023-04-22T02:42:11;100067.53;;;9.71;87.80
4576;BME280;2300;51.874;8.430;2023-04-22T02:44:37;100072.28;;;9.75;88.37
4576;BME280;2300;51.874;8.430;2023-04-22T02:47:05;100072.53;;;9.74;88.31
4576;BME280;2300;51.874;8.430;2023-04-22T02:49:32;100058.22;;;9.72;88.89
4576;BME280;2300;51.874;8.430;2023-04-22T02:51:59;100050.00;;;9.72;88.24
4576;BME280;2300;51.874;8.430;2023-04-22T02:54:25;100063.31;;;9.80;88.75
4576;BME280;2300;51.874;8.430;2023-04-22T02:56:52;100067.84;;;9.86;88.08
4576;BME280;2300;51.874;8.430;2023-04-22T02:59:18;100059.00;;;9.95;87.41
4576;BME280;2300;51.874;8.430;2023-04-22T03:01:45;100040.94;;;9.83;86.33
4576;BME280;2300;51.874;8.430;2023-04-22T03:04:11;100055.69;;;9.93;86.58
4576;BME280;2300;51.874;8.430;2023-04-22T03:06:41;100058.75;;;9.97;85.85
4576;BME280;2300;51.874;8.430;2023-04-22T03:09:07;100042.41;;;10.02;85.09
4576;BME280;2300;51.874;8.430;2023-04-22T03:11:34;100034.28;;;10.07;84.85
4576;BME280;2300;51.874;8.430;2023-04-22T03:14:00;100049.16;;;10.11;84.04
4576;BME280;2300;51.874;8.430;2023-04-22T03:16:27;100049.16;;;10.11;83.92
4576;BME280;2300;51.874;8.430;2023-04-22T03:18:53;100040.78;;;10.18;84.19
4576;BME280;2300;51.874;8.430;2023-04-22T03:21:20;100053.41;;;10.30;83.25
4576;BME280;2300;51.874;8.430;2023-04-22T03:23:47;100046.84;;;10.31;82.86
4576;BME280;2300;51.874;8.430;2023-04-22T03:26:14;100049.66;;;10.36;83.01
4576;BME280;2300;51.874;8.430;2023-04-22T03:28:40;100052.78;;;10.40;82.85
4576;BME280;2300;51.874;8.430;2023-04-22T03:31:07;100048.44;;;10.44;82.35
4576;BME280;2300;51.874;8.430;2023-04-22T03:33:33;100054.28;;;10.48;82.51
4576;BME280;2300;51.874;8.430;2023-04-22T03:36:00;100065.25;;;10.48;82.48
4576;BME280;2300;51.874;8.430;2023-04-22T03:38:26;100060.25;;;10.45;82.39
4576;BME280;2300;51.874;8.430;2023-04-22T03:40:54;100059.00;;;10.52;82.31
4576;BME280;2300;51.874;8.430;2023-04-22T03:43:20;100060.94;;;10.52;81.29
4576;BME280;2300;51.874;8.430;2023-04-22T03:45:47;100061.53;;;10.54;81.11
4576;BME280;2300;51.874;8.430;2023-04-22T03:48:13;100057.28;;;10.63;81.24
4576;BME280;2300;51.874;8.430;2023-04-22T03:50:40;100056.63;;;10.56;81.07
4576;BME280;2300;51.874;8.430;2023-04-22T03:53:06;100053.88;;;10.56;81.27
4576;BME280;2300;51.874;8.430;2023-04-22T03:55:33;100061.53;;;10.54;81.76
4576;BME280;2300;51.874;8.430;2023-04-22T03:58:00;100051.53;;;10.48;81.58
4576;BME280;2300;51.874;8.430;2023-04-22T04:00:27;100057.53;;;10.45;82.48
4576;BME280;2300;51.874;8.430;2023-04-22T04:02:53;100053.50;;;10.35;82.35
4576;BME280;2300;51.874;8.430;2023-04-22T04:05:20;100057.56;;;10.33;82.67
4576;BME280;2300;51.874;8.430;2023-04-22T04:07:46;100050.69;;;10.30;82.72
4576;BME280;2300;51.874;8.430;2023-04-22T04:10:12;100048.25;;;10.34;82.50
4576;BME280;2300;51.874;8.430;2023-04-22T04:12:39;100043.59;;;10.34;82.71
4576;BME280;2300;51.874;8.430;2023-04-22T04:15:07;99989.91;;;10.10;82.54
4576;BME280;2300;51.874;8.430;2023-04-22T04:17:34;100039.88;;;10.40;82.71
4576;BME280;2300;51.874;8.430;2023-04-22T04:20:01;100040.31;;;10.49;82.10
4576;BME280;2300;51.874;8.430;2023-04-22T04:22:27;100036.06;;;10.41;82.81
4576;BME280;2300;51.874;8.430;2023-04-22T04:24:53;100038.06;;;10.46;82.34
4576;BME280;2300;51.874;8.430;2023-04-22T04:27:21;100036.41;;;10.45;82.23
4576;BME280;2300;51.874;8.430;2023-04-22T04:29:48;100030.16;;;10.50;82.89
4576;BME280;2300;51.874;8.430;2023-04-22T04:32:16;100019.34;;;10.43;83.25
4576;BME280;2300;51.874;8.430;2023-04-22T04:34:43;100020.75;;;10.46;83.14
4576;BME280;2300;51.874;8.430;2023-04-22T04:37:09;100021.50;;;10.41;83.46
4576;BME280;2300;51.874;8.430;2023-04-22T04:39:35;100022.44;;;10.47;82.92
4576;BME280;2300;51.874;8.430;2023-04-22T04:42:02;100015.28;;;10.46;83.02
4576;BME280;2300;51.874;8.430;2023-04-22T04:44:29;100030.41;;;10.48;83.08
4576;BME280;2300;51.874;8.430;2023-04-22T04:46:56;100023.09;;;10.54;82.52
4576;BME280;2300;51.874;8.430;2023-04-22T04:49:25;100020.66;;;10.57;82.81
4576;BME280;2300;51.874;8.430;2023-04-22T04:51:54;100023.25;;;10.64;82.27
4576;BME280;2300;51.874;8.430;2023-04-22T04:54:21;100037.59;;;10.66;81.45
4576;BME280;2300;51.874;8.430;2023-04-22T04:56:47;100038.91;;;10.80;81.93
4576;BME280;2300;51.874;8.430;2023-04-22T04:59:13;100041.75;;;10.85;81.91
4576;BME280;2300;51.874;8.430;2023-04-22T05:01:40;100036.75;;;10.82;81.74
4576;BME280;2300;51.874;8.430;2023-04-22T05:04:06;100042.91;;;10.89;81.57
4576;BME280;2300;51.874;8.430;2023-04-22T05:06:34;100033.66;;;10.95;81.19
4576;BME280;2300;51.874;8.430;2023-04-22T05:09:00;100041.22;;;11.05;81.10
4576;BME280;2300;51.874;8.430;2023-04-22T05:11:27;100039.41;;;11.10;80.20
4576;BME280;2300;51.874;8.430;2023-04-22T05:13:54;100035.66;;;11.16;80.16
4576;BME280;2300;51.874;8.430;2023-04-22T05:16:20;100038.47;;;11.21;80.11
4576;BME280;2300;51.874;8.430;2023-04-22T05:18:46;100029.56;;;11.14;80.13
4576;BME280;2300;51.874;8.430;2023-04-22T05:21:13;100041.28;;;11.26;79.74
4576;BME280;2300;51.874;8.430;2023-04-22T05:23:42;100041.06;;;11.28;80.65
4576;BME280;2300;51.874;8.430;2023-04-22T05:26:08;100037.69;;;11.43;79.91
4576;BME280;2300;51.874;8.430;2023-04-22T05:28:35;100040.50;;;11.48;80.09
4576;BME280;2300;51.874;8.430;2023-04-22T05:31:01;100039.81;;;11.57;79.65
4576;BME280;2300;51.874;8.430;2023-04-22T05:33:27;100034.06;;;11.59;79.30
4576;BME280;2300;51.874;8.430;2023-04-22T05:35:54;100035.63;;;11.72;79.09
4576;BME280;2300;51.874;8.430;2023-04-22T05:38:20;100037.94;;;11.80;79.00
4576;BME280;2300;51.874;8.430;2023-04-22T05:40:48;100039.44;;;11.92;78.33
4576;BME280;2300;51.874;8.430;2023-04-22T05:43:15;100033.19;;;11.97;78.98
4576;BME280;2300;51.874;8.430;2023-04-22T05:45:41;100036.13;;;12.12;78.60
4576;BME280;2300;51.874;8.430;2023-04-22T05:48:08;100040.38;;;12.25;78.89
4576;BME280;2300;51.874;8.430;2023-04-22T05:50:34;100037.19;;;12.33;78.74
4576;BME280;2300;51.874;8.430;2023-04-22T05:53:00;100033.91;;;12.36;78.45
4576;BME280;2300;51.874;8.430;2023-04-22T05:55:27;100026.28;;;12.43;78.51
4576;BME280;2300;51.874;8.430;2023-04-22T05:57:55;100029.38;;;12.51;77.31
4576;BME280;2300;51.874;8.430;2023-04-22T06:00:21;100033.63;;;12.64;77.61
4576;BME280;2300;51.874;8.430;2023-04-22T06:02:47;100026.75;;;12.67;77.71
4576;BME280;2300;51.874;8.430;2023-04-22T06:05:14;100012.53;;;12.75;77.19
4576;BME280;2300;51.874;8.430;2023-04-22T06:07:40;100016.81;;;12.92;76.41
4576;BME280;2300;51.874;8.430;2023-04-22T06:10:08;100010.50;;;12.97;75.03
4576;BME280;2300;51.874;8.430;2023-04-22T06:12:34;100015.59;;;13.15;74.78
4576;BME280;2300;51.874;8.430;2023-04-22T06:15:03;100008.44;;;13.14;74.46
4576;BME280;2300;51.874;8.430;2023-04-22T06:17:29;100003.06;;;13.39;74.57
4576;BME280;2300;51.874;8.430;2023-04-22T06:19:56;100002.50;;;13.43;73.62
4576;BME280;2300;51.874;8.430;2023-04-22T06:22:22;100001.22;;;13.55;73.36
4576;BME280;2300;51.874;8.430;2023-04-22T06:24:49;100010.72;;;13.85;72.91
4576;BME280;2300;51.874;8.430;2023-04-22T06:27:16;99995.34;;;13.99;73.43
4576;BME280;2300;51.874;8.430;2023-04-22T06:29:42;100006.41;;;14.04;73.12
4576;BME280;2300;51.874;8.430;2023-04-22T06:32:10;100012.19;;;14.02;73.20
4576;BME280;2300;51.874;8.430;2023-04-22T06:34:36;100018.03;;;14.16;72.81
4576;BME280;2300;51.874;8.430;2023-04-22T06:37:03;100008.38;;;14.18;72.36
4576;BME280;2300;51.874;8.430;2023-04-22T06:39:30;100011.97;;;14.19;72.94
4576;BME280;2300;51.874;8.430;2023-04-22T06:41:56;100008.69;;;14.32;73.02
4576;BME280;2300;51.874;8.430;2023-04-22T06:44:23;100010.63;;;14.32;72.75
4576;BME280;2300;51.874;8.430;2023-04-22T06:46:50;100012.84;;;14.40;72.00
4576;BME280;2300;51.874;8.430;2023-04-22T06:49:17;100003.72;;;14.24;72.61
4576;BME280;2300;51.874;8.430;2023-04-22T06:51:44;99994.84;;;14.22;73.02
4576;BME280;2300;51.874;8.430;2023-04-22T06:54:10;100015.88;;;14.43;72.91
4576;BME280;2300;51.874;8.430;2023-04-22T06:56:37;99998.22;;;14.54;72.24
4576;BME280;2300;51.874;8.430;2023-04-22T06:59:03;100010.38;;;14.79;72.69
4576;BME280;2300;51.874;8.430;2023-04-22T07:01:32;100004.31;;;14.92;71.33
4576;BME280;2300;51.874;8.430;2023-04-22T07:03:58;100007.34;;;14.90;71.50
4576;BME280;2300;51.874;8.430;2023-04-22T07:06:28;100001.81;;;15.00;71.22
4576;BME280;2300;51.874;8.430;2023-04-22T07:08:55;100013.16;;;15.19;71.89
4576;BME280;2300;51.874;8.430;2023-04-22T07:11:21;100009.22;;;15.40;71.31
4576;BME280;2300;51.874;8.430;2023-04-22T07:13:48;100008.91;;;15.57;70.07
4576;BME280;2300;51.874;8.430;2023-04-22T07:16:14;100007.25;;;15.51;70.02
4576;BME280;2300;51.874;8.430;2023-04-22T07:18:41;100004.72;;;15.70;69.63
4576;BME280;2300;51.874;8.430;2023-04-22T07:21:07;100003.53;;;15.86;69.44
4576;BME280;2300;51.874;8.430;2023-04-22T07:23:35;99997.94;;;15.96;69.74
4576;BME280;2300;51.874;8.430;2023-04-22T07:26:01;99982.66;;;16.09;68.59
4576;BME280;2300;51.874;8.430;2023-04-22T07:28:28;99994.06;;;16.51;67.97
4576;BME280;2300;51.874;8.430;2023-04-22T07:30:54;99987.69;;;16.51;66.20
4576;BME280;2300;51.874;8.430;2023-04-22T07:33:21;100000.00;;;16.73;67.13
4576;BME280;2300;51.874;8.430;2023-04-22T07:35:47;99985.22;;;16.83;67.07
4576;BME280;2300;51.874;8.430;2023-04-22T07:38:14;99994.16;;;17.09;66.20
4576;BME280;2300;51.874;8.430;2023-04-22T07:40:43;99993.06;;;17.10;66.28
4576;BME280;2300;51.874;8.430;2023-04-22T07:43:09;99990.16;;;17.20;65.27
4576;BME280;2300;51.874;8.430;2023-04-22T07:45:36;99988.53;;;17.43;64.98
4576;BME280;2300;51.874;8.430;2023-04-22T07:48:03;99979.09;;;17.44;64.32
4576;BME280;2300;51.874;8.430;2023-04-22T07:50:29;99985.41;;;17.97;64.33
4576;BME280;2300;51.874;8.430;2023-04-22T07:52:56;99983.84;;;18.28;63.32
4576;BME280;2300;51.874;8.430;2023-04-22T07:55:22;99981.69;;;18.95;62.14
4576;BME280;2300;51.874;8.430;2023-04-22T07:57:50;99971.59;;;18.99;60.24
4576;BME280;2300;51.874;8.430;2023-04-22T08:00:17;99952.75;;;18.96;60.76
4576;BME280;2300;51.874;8.430;2023-04-22T08:02:43;99961.03;;;18.82;60.02
4576;BME280;2300;51.874;8.430;2023-04-22T08:05:11;99977.63;;;19.20;60.47
4576;BME280;2300;51.874;8.430;2023-04-22T08:07:37;99966.94;;;19.27;59.48
4576;BME280;2300;51.874;8.430;2023-04-22T08:10:05;99968.19;;;19.62;59.65
4576;BME280;2300;51.874;8.430;2023-04-22T08:12:32;99970.06;;;19.94;58.72
4576;BME280;2300;51.874;8.430;2023-04-22T08:15:00;99956.56;;;20.23;57.59
4576;BME280;2300;51.874;8.430;2023-04-22T08:17:26;99975.00;;;20.69;56.79
4576;BME280;2300;51.874;8.430;2023-04-22T08:19:53;99971.47;;;20.77;57.04
4576;BME280;2300;51.874;8.430;2023-04-22T08:22:19;99979.31;;;20.52;56.54
4576;BME280;2300;51.874;8.430;2023-04-22T08:24:45;99960.44;;;20.49;56.19
4576;BME280;2300;51.874;8.430;2023-04-22T08:27:12;99974.38;;;20.49;56.13
4576;BME280;2300;51.874;8.430;2023-04-22T08:29:39;99974.50;;;20.44;56.14
4576;BME280;2300;51.874;8.430;2023-04-22T08:32:07;99969.00;;;20.75;56.18
4576;BME280;2300;51.874;8.430;2023-04-22T08:34:33;99976.81;;;21.40;55.65
4576;BME280;2300;51.874;8.430;2023-04-22T08:36:59;99971.91;;;21.94;54.27
4576;BME280;2300;51.874;8.430;2023-04-22T08:39:26;99972.81;;;22.11;54.26
4576;BME280;2300;51.874;8.430;2023-04-22T08:41:52;99969.69;;;22.21;53.16
4576;BME280;2300;51.874;8.430;2023-04-22T08:44:21;99966.63;;;21.92;54.01
4576;BME280;2300;51.874;8.430;2023-04-22T08:46:48;99973.47;;;22.26;54.93
4576;BME280;2300;51.874;8.430;2023-04-22T08:49:17;99972.03;;;22.71;54.43
4576;BME280;2300;51.874;8.430;2023-04-22T08:51:44;99960.81;;;22.62;52.54
4576;BME280;2300;51.874;8.430;2023-04-22T08:54:11;99953.22;;;22.97;53.06
4576;BME280;2300;51.874;8.430;2023-04-22T08:56:39;99954.31;;;23.31;51.08
4576;BME280;2300;51.874;8.430;2023-04-22T08:59:06;99948.97;;;23.00;51.77
4576;BME280;2300;51.874;8.430;2023-04-22T09:01:34;99942.72;;;22.94;52.07
4576;BME280;2300;51.874;8.430;2023-04-22T09:04:02;99945.50;;;22.60;52.98
4576;BME280;2300;51.874;8.430;2023-04-22T09:06:31;99915.91;;;22.76;53.25
4576;BME280;2300;51.874;8.430;2023-04-22T09:08:58;99929.38;;;23.00;53.01
4576;BME280;2300;51.874;8.430;2023-04-22T09:11:25;99894.78;;;22.96;53.30
4576;BME280;2300;51.874;8.430;2023-04-22T09:13:52;99907.22;;;23.24;52.72
4576;BME280;2300;51.874;8.430;2023-04-22T09:16:19;99925.47;;;23.39;52.23
4576;BME280;2300;51.874;8.430;2023-04-22T09:18:45;99913.94;;;23.40;52.24
4576;BME280;2300;51.874;8.430;2023-04-22T09:21:12;99925.63;;;23.72;52.07
4576;BME280;2300;51.874;8.430;2023-04-22T09:23:48;99924.91;;;23.83;52.70
4576;BME280;2300;51.874;8.430;2023-04-22T09:26:17;99915.38;;;23.76;52.43
4576;BME280;2300;51.874;8.430;2023-04-22T09:28:49;99910.38;;;23.14;52.95
4576;BME280;2300;51.874;8.430;2023-04-22T09:31:15;99907.63;;;23.05;52.50
4576;BME280;2300;51.874;8.430;2023-04-22T09:33:46;99906.69;;;23.31;52.08
4576;BME280;2300;51.874;8.430;2023-04-22T09:36:13;99907.91;;;23.13;51.58
4576;BME280;2300;51.874;8.430;2023-04-22T09:38:39;99902.16;;;23.09;52.39
4576;BME280;2300;51.874;8.430;2023-04-22T09:41:09;99895.31;;;22.81;52.45
4576;BME280;2300;51.874;8.430;2023-04-22T09:43:36;99912.59;;;23.46;53.28
4576;BME280;2300;51.874;8.430;2023-04-22T09:46:03;99909.34;;;23.65;51.71
4576;BME280;2300;51.874;8.430;2023-04-22T09:48:29;99907.91;;;23.59;52.88
4576;BME280;2300;51.874;8.430;2023-04-22T09:50:56;99910.91;;;23.83;52.25
4576;BME280;2300;51.874;8.430;2023-04-22T09:53:22;99906.13;;;23.55;51.18
4576;BME280;2300;51.874;8.430;2023-04-22T09:55:51;99898.50;;;23.84;51.95
4576;BME280;2300;51.874;8.430;2023-04-22T09:58:20;99895.03;;;23.87;51.03
4576;BME280;2300;51.874;8.430;2023-04-22T10:00:49;99887.22;;;23.72;52.29
4576;BME280;2300;51.874;8.430;2023-04-22T10:03:16;99892.72;;;23.89;51.19
4576;BME280;2300;51.874;8.430;2023-04-22T10:05:43;99894.34;;;23.90;50.65
4576;BME280;2300;51.874;8.430;2023-04-22T10:08:11;99893.78;;;24.06;50.36
4576;BME280;2300;51.874;8.430;2023-04-22T10:10:38;99876.72;;;23.90;50.89
4576;BME280;2300;51.874;8.430;2023-04-22T10:13:06;99882.19;;;23.86;49.86
4576;BME280;2300;51.874;8.430;2023-04-22T10:15:36;99872.72;;;23.70;50.98
4576;BME280;2300;51.874;8.430;2023-04-22T10:18:06;99879.69;;;23.64;52.23
4576;BME280;2300;51.874;8.430;2023-04-22T10:20:35;99876.69;;;23.69;50.70
4576;BME280;2300;51.874;8.430;2023-04-22T10:23:03;99878.78;;;23.52;50.97
4576;BME280;2300;51.874;8.430;2023-04-22T10:25:30;99875.16;;;23.51;50.95
4576;BME280;2300;51.874;8.430;2023-04-22T10:28:01;99867.50;;;23.31;49.75
4576;BME280;2300;51.874;8.430;2023-04-22T10:30:29;99868.94;;;23.37;50.45
4576;BME280;2300;51.874;8.430;2023-04-22T10:33:35;99858.25;;;23.39;50.56
4576;BME280;2300;51.874;8.430;2023-04-22T10:36:14;99845.34;;;23.09;49.30
4576;BME280;2300;51.874;8.430;2023-04-22T10:39:13;99844.91;;;23.36;49.35
4576;BME280;2300;51.874;8.430;2023-04-22T10:41:40;99853.22;;;23.53;50.60
4576;BME280;2300;51.874;8.430;2023-04-22T10:44:07;99824.75;;;23.13;49.13
4576;BME280;2300;51.874;8.430;2023-04-22T10:46:59;99839.19;;;23.24;49.94
4576;BME280;2300;51.874;8.430;2023-04-22T10:49:29;99836.19;;;23.29;49.47
4576;BME280;2300;51.874;8.430;2023-04-22T10:51:57;99838.59;;;23.10;49.38
4576;BME280;2300;51.874;8.430;2023-04-22T10:57:32;99840.78;;;23.33;48.66
4576;BME280;2300;51.874;8.430;2023-04-22T11:03:11;99832.03;;;23.43;49.32
4576;BME280;2300;51.874;8.430;2023-04-22T11:05:40;99824.03;;;23.25;48.17
4576;BME280;2300;51.874;8.430;2023-04-22T11:08:12;99795.47;;;23.40;49.62
4576;BME280;2300;51.874;8.430;2023-04-22T11:10:43;99814.63;;;23.79;49.46
4576;BME280;2300;51.874;8.430;2023-04-22T11:13:12;99815.34;;;24.18;48.33
4576;BME280;2300;51.874;8.430;2023-04-22T11:15:41;99807.38;;;24.41;47.93
4576;BME280;2300;51.874;8.430;2023-04-22T11:18:19;99811.63;;;24.92;49.46
4576;BME280;2300;51.874;8.430;2023-04-22T11:20:48;99806.81;;;24.92;47.35
4576;BME280;2300;51.874;8.430;2023-04-22T11:23:20;99808.22;;;24.86;47.51
4576;BME280;2300;51.874;8.430;2023-04-22T11:25:53;99813.69;;;24.83;47.83
4576;BME280;2300;51.874;8.430;2023-04-22T11:28:20;99812.06;;;24.16;47.86
4576;BME280;2300;51.874;8.430;2023-04-22T11:30:47;99801.63;;;24.37;49.06
4576;BME280;2300;51.874;8.430;2023-04-22T11:33:14;99795.78;;;24.42;47.86
4576;BME280;2300;51.874;8.430;2023-04-22T11:35:41;99787.44;;;24.01;47.95
4576;BME280;2300;51.874;8.430;2023-04-22T11:38:10;99803.59;;;24.24;49.49
4576;BME280;2300;51.874;8.430;2023-04-22T11:40:38;99801.81;;;24.20;47.94
4576;BME280;2300;51.874;8.430;2023-04-22T11:43:07;99791.53;;;24.24;48.63
4576;BME280;2300;51.874;8.430;2023-04-22T11:45:35;99811.22;;;24.15;48.55
4576;BME280;2300;51.874;8.430;2023-04-22T11:48:03;99803.00;;;24.64;49.11
4576;BME280;2300;51.874;8.430;2023-04-22T11:50:31;99801.56;;;24.58;47.71
4576;BME280;2300;51.874;8.430;2023-04-22T11:53:00;99798.19;;;24.64;47.45
4576;BME280;2300;51.874;8.430;2023-04-22T11:55:30;99782.75;;;24.58;47.98
4576;BME280;2300;51.874;8.430;2023-04-22T11:57:59;99792.88;;;24.84;47.72
4576;BME280;2300;51.874;8.430;2023-04-22T12:00:29;99790.47;;;24.61;47.09
4576;BME280;2300;51.874;8.430;2023-04-22T12:02:57;99787.66;;;24.49;47.20
4576;BME280;2300;51.874;8.430;2023-04-22T12:05:38;99787.50;;;24.79;47.68
4576;BME280;2300;51.874;8.430;2023-04-22T12:08:09;99782.13;;;25.10;47.51
4576;BME280;2300;51.874;8.430;2023-04-22T12:10:45;99790.09;;;25.32;47.85
4576;BME280;2300;51.874;8.430;2023-04-22T12:13:19;99775.34;;;24.99;46.70
4576;BME280;2300;51.874;8.430;2023-04-22T12:15:46;99748.91;;;25.12;46.91
4576;BME280;2300;51.874;8.430;2023-04-22T12:18:13;99763.63;;;24.72;47.59
4576;BME280;2300;51.874;8.430;2023-04-22T12:20:40;99772.91;;;24.40;48.21
4576;BME280;2300;51.874;8.430;2023-04-22T12:23:13;99770.38;;;24.59;48.18
4576;BME280;2300;51.874;8.430;2023-04-22T12:25:42;99771.34;;;24.88;47.26
4576;BME280;2300;51.874;8.430;2023-04-22T12:28:09;99769.66;;;24.50;46.89
4576;BME280;2300;51.874;8.430;2023-04-22T12:30:37;99764.25;;;24.45;48.71
4576;BME280;2300;51.874;8.430;2023-04-22T12:33:03;99764.91;;;23.76;47.66
4576;BME280;2300;51.874;8.430;2023-04-22T12:35:30;99778.56;;;23.57;49.01
4576;BME280;2300;51.874;8.430;2023-04-22T12:37:57;99763.88;;;23.60;49.78
4576;BME280;2300;51.874;8.430;2023-04-22T12:40:23;99762.56;;;23.28;49.36
4576;BME280;2300;51.874;8.430;2023-04-22T12:42:51;99760.06;;;23.35;49.97
4576;BME280;2300;51.874;8.430;2023-04-22T12:45:17;99738.72;;;23.22;49.40
4576;BME280;2300;51.874;8.430;2023-04-22T12:47:44;99756.00;;;23.74;48.81
4576;BME280;2300;51.874;8.430;2023-04-22T12:50:11;99752.88;;;23.76;48.75
4576;BME280;2300;51.874;8.430;2023-04-22T12:52:37;99750.97;;;24.01;49.24
4576;BME280;2300;51.874;8.430;2023-04-22T12:55:04;99756.56;;;24.09;49.46
4576;BME280;2300;51.874;8.430;2023-04-22T12:57:31;99741.22;;;23.86;48.08
4576;BME280;2300;51.874;8.430;2023-04-22T12:59:59;99745.22;;;23.64;48.98
4576;BME280;2300;51.874;8.430;2023-04-22T13:02:25;99757.22;;;23.85;49.47
4576;BME280;2300;51.874;8.430;2023-04-22T13:04:51;99754.34;;;23.94;47.03
4576;BME280;2300;51.874;8.430;2023-04-22T13:07:18;99757.34;;;24.10;47.36
4576;BME280;2300;51.874;8.430;2023-04-22T13:09:45;99756.13;;;23.99;46.25
4576;BME280;2300;51.874;8.430;2023-04-22T13:12:11;99750.47;;;24.40;45.86
4576;BME280;2300;51.874;8.430;2023-04-22T13:14:37;99749.31;;;24.53;45.58
4576;BME280;2300;51.874;8.430;2023-04-22T13:17:05;99752.44;;;24.52;46.74
4576;BME280;2300;51.874;8.430;2023-04-22T13:19:32;99739.09;;;24.04;46.14
4576;BME280;2300;51.874;8.430;2023-04-22T13:21:59;99751.28;;;23.66;47.21
4576;BME280;2300;51.874;8.430;2023-04-22T13:24:26;99734.53;;;23.08;46.92